Terminal Aerodrome Forecast
Issued by NWS Austin/San Antonio, TX

Home | Current Version | Previous Version | Text Only | Print | Product List | Glossary On
Versions: 1 2 3 4 5 6 7 8 9 10 11 12 13 14 15 16 17 18 19 20 21 22 23 24
000
FTUS44 KEWX 281721
TAFSAT
TAF
KSAT 281721Z 2818/2924 14014G24KT P6SM SCT020 BKN040
     FM281900 15018G28KT P6SM BKN040
     FM290300 14020G30KT P6SM BKN018
     FM290700 17011KT P6SM BKN015
     FM291000 26022G32KT 5SM -TSRA BR OVC015CB
     FM291200 21007KT P6SM BKN100=

USA.gov is the U.S. government's official web portal to all federal, state and local government web resources and services.